createdAt,value
2023-05-01T00:01:00.176Z,6.97
2023-05-01T00:06:07.944Z,6.75
2023-05-01T00:08:35.165Z,6.72
2023-05-01T00:11:09.851Z,7.78
2023-05-01T00:13:37.583Z,6.65
2023-05-01T00:16:12.685Z,5.40
2023-05-01T00:18:40.000Z,6.60
2023-05-01T00:21:07.139Z,5.85
2023-05-01T00:23:34.308Z,6.72
2023-05-01T00:26:01.504Z,6.45
2023-05-01T00:28:29.138Z,6.15
2023-05-01T00:30:57.776Z,6.30
2023-05-01T00:33:24.889Z,6.35
2023-05-01T00:35:52.802Z,5.95
2023-05-01T00:38:19.960Z,5.43
2023-05-01T00:40:47.652Z,5.82
2023-05-01T00:43:14.879Z,5.93
2023-05-01T00:45:46.366Z,6.68
2023-05-01T00:48:14.950Z,6.20
2023-05-01T00:50:44.279Z,5.82
2023-05-01T00:53:12.345Z,6.32
2023-05-01T00:55:42.957Z,6.63
2023-05-01T00:58:14.150Z,5.88
2023-05-01T01:00:41.472Z,6.05
2023-05-01T01:03:08.924Z,5.80
2023-05-01T01:05:53.856Z,5.22
2023-05-01T01:08:34.395Z,6.38
2023-05-01T01:11:21.719Z,5.28
2023-05-01T01:14:32.956Z,5.63
2023-05-01T01:17:38.773Z,5.53
2023-05-01T01:20:32.378Z,5.55
2023-05-01T01:23:48.213Z,5.78
2023-05-01T01:27:20.475Z,5.70
2023-05-01T01:30:23.636Z,5.32
2023-05-01T01:34:24.893Z,5.50
2023-05-01T01:37:18.928Z,5.60
2023-05-01T01:39:55.406Z,6.78
2023-05-01T01:42:31.675Z,6.30
2023-05-01T01:45:30.424Z,6.78
2023-05-01T01:47:58.983Z,7.88
2023-05-01T01:50:28.474Z,5.90
2023-05-01T01:53:00.535Z,7.53
2023-05-01T01:55:31.664Z,6.45
2023-05-01T01:58:00.060Z,7.47
2023-05-01T02:02:59.101Z,5.75
2023-05-01T02:05:27.130Z,6.47
2023-05-01T02:07:56.468Z,7.05
2023-05-01T02:10:24.576Z,7.00
2023-05-01T02:12:53.274Z,5.55
2023-05-01T02:15:22.499Z,7.47
2023-05-01T02:17:52.616Z,6.43
2023-05-01T02:20:22.088Z,7.15
2023-05-01T02:22:52.580Z,7.25
2023-05-01T02:25:19.943Z,7.03
2023-05-01T02:28:02.010Z,7.22
2023-05-01T02:30:29.660Z,7.07
2023-05-01T02:32:57.794Z,8.65
2023-05-01T02:35:25.123Z,7.50
2023-05-01T02:37:52.450Z,7.35
2023-05-01T02:40:19.922Z,7.72
2023-05-01T02:42:49.747Z,8.35
2023-05-01T02:45:23.749Z,7.68
2023-05-01T02:47:56.431Z,10.07
2023-05-01T02:50:25.110Z,8.73
2023-05-01T02:52:52.516Z,7.43
2023-05-01T02:55:31.355Z,7.47
2023-05-01T02:57:59.874Z,7.72
2023-05-01T03:00:27.953Z,6.68
2023-05-01T03:02:55.347Z,7.30
2023-05-01T03:05:22.973Z,7.88
2023-05-01T03:07:51.142Z,8.70
2023-05-01T03:10:18.548Z,7.93
2023-05-01T03:12:45.901Z,8.65
2023-05-01T03:15:13.259Z,7.43
2023-05-01T03:17:40.453Z,8.02
2023-05-01T03:20:10.779Z,10.57
2023-05-01T03:22:37.960Z,10.55
2023-05-01T03:25:05.892Z,9.73
2023-05-01T03:27:33.107Z,9.32
2023-05-01T03:30:00.264Z,9.95
2023-05-01T03:32:29.473Z,10.85
2023-05-01T03:34:57.271Z,11.40
2023-05-01T03:37:25.860Z,10.32
2023-05-01T03:39:53.998Z,9.65
2023-05-01T03:42:40.383Z,12.23
2023-05-01T03:45:14.967Z,12.27
2023-05-01T03:47:42.355Z,11.15
2023-05-01T03:50:10.560Z,10.30
2023-05-01T03:52:40.765Z,11.30
2023-05-01T03:55:08.845Z,11.23
2023-05-01T03:57:40.976Z,9.40
2023-05-01T04:00:10.948Z,11.32
2023-05-01T04:02:45.785Z,11.77
2023-05-01T04:05:18.227Z,11.80
2023-05-01T04:07:51.679Z,12.43
2023-05-01T04:10:18.985Z,12.48
2023-05-01T04:12:55.309Z,12.85
2023-05-01T04:15:22.620Z,13.85
2023-05-01T04:17:50.269Z,13.80
2023-05-01T04:20:19.422Z,14.43
2023-05-01T04:22:47.697Z,14.40
2023-05-01T04:25:14.927Z,13.95
2023-05-01T04:27:42.599Z,12.98
2023-05-01T04:30:10.690Z,14.38
2023-05-01T04:32:38.844Z,14.10
2023-05-01T04:35:07.011Z,13.80
2023-05-01T04:37:35.678Z,13.20
2023-05-01T04:40:04.343Z,13.48
2023-05-01T04:42:34.346Z,15.10
2023-05-01T04:45:04.041Z,14.05
2023-05-01T04:47:34.912Z,16.05
2023-05-01T04:50:02.216Z,16.65
2023-05-01T04:52:30.827Z,16.13
2023-05-01T04:55:00.377Z,14.75
2023-05-01T04:57:30.541Z,15.80
2023-05-01T05:00:00.414Z,16.35
2023-05-01T05:02:27.957Z,17.92
2023-05-01T05:04:56.347Z,15.65
2023-05-01T05:07:23.773Z,16.10
2023-05-01T05:10:09.962Z,17.23
2023-05-01T05:12:37.723Z,15.40
2023-05-01T05:15:06.578Z,15.30
2023-05-01T05:17:33.867Z,17.70
2023-05-01T05:20:01.112Z,15.25
2023-05-01T05:22:28.321Z,14.80
2023-05-01T05:25:31.118Z,13.73
2023-05-01T05:27:59.671Z,16.15
2023-05-01T05:30:27.813Z,16.67
2023-05-01T05:32:55.378Z,17.13
2023-05-01T05:35:26.179Z,16.52
2023-05-01T05:37:54.577Z,15.75
2023-05-01T05:40:21.751Z,15.45
2023-05-01T05:42:57.226Z,16.60
2023-05-01T05:45:26.521Z,15.73
2023-05-01T05:47:53.834Z,18.85
2023-05-01T05:50:21.106Z,19.13
2023-05-01T05:52:48.614Z,18.48
2023-05-01T05:55:15.889Z,16.92
2023-05-01T05:57:52.833Z,18.52
2023-05-01T06:00:20.199Z,19.17
2023-05-01T06:02:50.196Z,17.45
2023-05-01T06:05:19.619Z,18.55
2023-05-01T06:07:47.082Z,17.77
2023-05-01T06:10:14.199Z,15.95
2023-05-01T06:12:41.715Z,16.73
2023-05-01T06:15:16.845Z,14.55
2023-05-01T06:17:49.059Z,19.17
2023-05-01T06:20:16.508Z,17.48
2023-05-01T06:22:43.830Z,16.15
2023-05-01T06:25:29.053Z,15.20
2023-05-01T06:27:56.207Z,16.90
2023-05-01T06:30:24.319Z,17.70
2023-05-01T06:32:51.599Z,17.52
2023-05-01T06:35:20.915Z,18.90
2023-05-01T06:37:48.136Z,17.83
2023-05-01T06:40:15.357Z,18.17
2023-05-01T06:42:43.037Z,17.50
2023-05-01T06:45:10.295Z,14.45
2023-05-01T06:47:37.450Z,17.50
2023-05-01T06:50:05.863Z,14.48
2023-05-01T06:52:33.961Z,14.68
2023-05-01T06:55:01.296Z,14.73
2023-05-01T06:57:28.481Z,14.85
2023-05-01T06:59:56.367Z,15.65
2023-05-01T07:02:23.881Z,13.25
2023-05-01T07:04:51.103Z,14.32
2023-05-01T07:07:18.282Z,15.82
2023-05-01T07:09:45.514Z,14.43
2023-05-01T07:12:12.660Z,14.85
2023-05-01T07:14:41.430Z,14.25
2023-05-01T07:17:09.218Z,15.88
2023-05-01T07:19:36.376Z,18.35
2023-05-01T07:22:04.676Z,16.40
2023-05-01T07:26:59.963Z,17.35
2023-05-01T07:29:27.110Z,14.93
2023-05-01T07:31:54.527Z,18.25
2023-05-01T07:34:21.793Z,16.92
2023-05-01T07:36:49.014Z,16.35
2023-05-01T07:39:17.576Z,14.57
2023-05-01T07:41:44.769Z,15.10
2023-05-01T07:44:11.927Z,14.75
2023-05-01T07:46:39.104Z,18.63
2023-05-01T07:49:06.550Z,17.35
2023-05-01T07:51:33.725Z,18.42
2023-05-01T07:54:04.482Z,15.70
2023-05-01T07:56:31.936Z,16.88
2023-05-01T07:58:59.089Z,16.02
2023-05-01T08:01:26.823Z,16.52
2023-05-01T08:03:54.089Z,14.95
2023-05-01T08:06:21.465Z,14.07
2023-05-01T08:08:48.647Z,15.35
2023-05-01T08:11:16.434Z,16.35
2023-05-01T08:13:43.576Z,15.85
2023-05-01T08:16:10.799Z,19.23
2023-05-01T08:18:38.056Z,13.77
2023-05-01T08:21:05.271Z,17.17
2023-05-01T08:23:32.810Z,16.35
2023-05-01T08:26:00.013Z,16.80
2023-05-01T08:28:27.184Z,18.75
2023-05-01T08:30:54.356Z,17.38
2023-05-01T08:33:21.656Z,28.35
2023-05-01T08:35:49.322Z,17.13
2023-05-01T08:38:16.840Z,15.73
2023-05-01T08:40:53.880Z,17.13
2023-05-01T08:43:21.387Z,15.95
2023-05-01T08:45:49.742Z,18.25
2023-05-01T08:48:20.599Z,14.07
2023-05-01T08:50:48.721Z,15.63
2023-05-01T08:53:19.083Z,14.55
2023-05-01T08:55:47.771Z,16.65
2023-05-01T08:58:17.845Z,17.00
2023-05-01T09:00:46.951Z,14.52
2023-05-01T09:03:14.696Z,17.33
2023-05-01T09:05:42.408Z,17.80
2023-05-01T09:08:09.542Z,15.98
2023-05-01T09:10:46.033Z,15.20
2023-05-01T09:13:13.218Z,17.98
2023-05-01T09:15:40.502Z,17.30
2023-05-01T09:18:09.197Z,18.35
2023-05-01T09:20:37.766Z,17.83
2023-05-01T09:23:05.111Z,19.40
2023-05-01T09:25:32.346Z,16.98
2023-05-01T09:27:59.462Z,16.30
2023-05-01T09:30:38.478Z,25.27
2023-05-01T09:33:14.891Z,19.55
2023-05-01T09:35:57.209Z,17.27
2023-05-01T09:38:27.266Z,18.27
2023-05-01T09:41:06.031Z,16.65
2023-05-01T09:43:33.912Z,16.00
2023-05-01T09:46:10.517Z,16.35
2023-05-01T09:48:38.765Z,16.10
2023-05-01T09:54:00.420Z,16.48
2023-05-01T09:56:31.762Z,15.32
2023-05-01T09:59:20.006Z,18.80
2023-05-01T10:01:50.046Z,16.63
2023-05-01T10:04:18.124Z,16.90
2023-05-01T10:06:45.656Z,17.75
2023-05-01T10:09:29.137Z,16.95
2023-05-01T10:11:57.737Z,20.80
2023-05-01T10:14:26.929Z,18.50
2023-05-01T10:16:56.623Z,20.13
2023-05-01T10:19:23.908Z,24.40
2023-05-01T10:21:51.204Z,18.10
2023-05-01T10:24:18.674Z,20.20
2023-05-01T10:26:50.516Z,20.50
2023-05-01T10:29:21.044Z,20.65
2023-05-01T10:31:48.321Z,20.85
2023-05-01T10:34:20.006Z,21.10
2023-05-01T10:36:57.912Z,18.25
2023-05-01T10:39:34.574Z,19.83
2023-05-01T10:42:13.978Z,21.52
2023-05-01T10:44:42.716Z,19.17
2023-05-01T10:47:27.781Z,20.27
2023-05-01T10:50:15.974Z,19.00
2023-05-01T10:53:16.547Z,21.23
2023-05-01T10:55:46.729Z,22.30
2023-05-01T10:58:38.483Z,20.25
2023-05-01T11:01:29.999Z,21.02
2023-05-01T11:04:09.712Z,18.10
2023-05-01T11:06:40.144Z,21.92
2023-05-01T11:09:57.397Z,20.73
2023-05-01T11:15:27.053Z,22.48
2023-05-01T11:17:55.780Z,23.73
2023-05-01T11:20:25.856Z,20.85
2023-05-01T11:22:55.770Z,23.92
2023-05-01T11:25:27.601Z,21.73
2023-05-01T11:28:03.894Z,22.00
2023-05-01T11:30:41.206Z,21.77
2023-05-01T11:33:10.524Z,23.60
2023-05-01T11:35:38.448Z,22.65
2023-05-01T11:38:05.607Z,23.98
2023-05-01T11:40:36.632Z,24.48
2023-05-01T11:43:09.045Z,23.25
2023-05-01T11:45:38.029Z,23.10
2023-05-01T11:48:14.527Z,23.08
2023-05-01T11:50:41.817Z,22.30
2023-05-01T11:53:18.526Z,22.73
2023-05-01T11:55:45.930Z,23.60
2023-05-01T11:58:13.296Z,34.05
2023-05-01T12:00:43.192Z,23.33
2023-05-01T12:03:14.904Z,25.63
2023-05-01T12:05:45.199Z,22.35
2023-05-01T12:08:20.681Z,25.88
2023-05-01T12:10:57.800Z,24.20
2023-05-01T12:13:26.953Z,23.65
2023-05-01T12:15:56.185Z,23.65
2023-05-01T12:18:23.671Z,19.80
2023-05-01T12:20:54.601Z,24.92
2023-05-01T12:23:37.220Z,21.75
2023-05-01T12:26:23.510Z,18.98
2023-05-01T12:29:04.731Z,22.92
2023-05-01T12:31:32.194Z,21.10
2023-05-01T12:34:07.659Z,19.98
2023-05-01T12:36:37.097Z,20.42
2023-05-01T12:39:09.091Z,20.08
2023-05-01T12:41:46.063Z,18.30
2023-05-01T12:44:26.578Z,22.25
2023-05-01T12:47:12.975Z,20.92
2023-05-01T12:49:41.446Z,21.33
2023-05-01T12:52:09.421Z,19.05
2023-05-01T12:54:40.550Z,20.35
2023-05-01T12:57:14.994Z,20.73
2023-05-01T12:59:47.228Z,18.83
2023-05-01T13:02:17.875Z,19.48
2023-05-01T13:04:48.923Z,16.83
2023-05-01T13:07:19.173Z,20.05
2023-05-01T13:09:59.331Z,17.85
2023-05-01T13:14:56.874Z,15.93
2023-05-01T13:20:03.959Z,16.88
2023-05-01T13:22:40.507Z,15.90
2023-05-01T13:25:22.455Z,15.00
2023-05-01T13:27:54.022Z,14.65
2023-05-01T13:30:33.289Z,17.13
2023-05-01T13:33:01.827Z,16.80
2023-05-01T13:35:29.306Z,16.00
2023-05-01T13:37:56.867Z,18.88
2023-05-01T13:40:26.066Z,17.65
2023-05-01T13:42:54.025Z,18.75
2023-05-01T13:45:21.508Z,16.40
2023-05-01T13:47:51.838Z,18.33
2023-05-01T13:50:19.270Z,16.15
2023-05-01T13:52:46.633Z,16.55
2023-05-01T13:55:14.671Z,17.98
2023-05-01T13:57:43.181Z,19.00
2023-05-01T14:00:19.414Z,17.23
2023-05-01T14:02:49.198Z,16.50
2023-05-01T14:05:30.376Z,21.13
2023-05-01T14:07:58.816Z,19.80
2023-05-01T14:10:29.577Z,17.90
2023-05-01T14:12:58.957Z,18.10
2023-05-01T14:15:28.658Z,18.13
2023-05-01T14:17:55.919Z,18.88
2023-05-01T14:20:25.700Z,21.25
2023-05-01T14:22:53.391Z,20.33
2023-05-01T14:25:37.397Z,22.38
2023-05-01T14:28:08.195Z,22.20
2023-05-01T14:30:38.904Z,18.30
2023-05-01T14:33:11.125Z,20.13
2023-05-01T14:35:52.790Z,21.45
2023-05-01T14:38:25.914Z,21.15
2023-05-01T14:40:53.122Z,24.77
2023-05-01T14:43:23.405Z,20.00
2023-05-01T14:45:50.765Z,24.13
2023-05-01T14:48:26.680Z,20.00
2023-05-01T14:50:59.273Z,23.27
2023-05-01T14:53:31.951Z,20.38
2023-05-01T14:55:59.108Z,20.48
2023-05-01T14:58:26.228Z,22.90
2023-05-01T15:00:53.425Z,23.33
2023-05-01T15:03:20.676Z,23.58
2023-05-01T15:05:47.916Z,20.67
2023-05-01T15:08:15.096Z,26.83
2023-05-01T15:10:43.524Z,26.40
2023-05-01T15:13:10.816Z,25.85
2023-05-01T15:15:38.027Z,24.92
2023-05-01T15:18:05.564Z,22.08
2023-05-01T15:20:34.255Z,23.08
2023-05-01T15:23:01.391Z,25.38
2023-05-01T15:25:29.978Z,27.15
2023-05-01T15:27:57.392Z,25.75
2023-05-01T15:30:25.056Z,24.42
2023-05-01T15:32:52.744Z,27.10
2023-05-01T15:35:21.395Z,25.33
2023-05-01T15:37:50.550Z,26.77
2023-05-01T15:40:18.087Z,26.38
2023-05-01T15:42:47.925Z,27.23
2023-05-01T15:45:15.146Z,23.88
2023-05-01T15:47:42.420Z,27.92
2023-05-01T15:50:11.904Z,27.80
2023-05-01T15:52:39.511Z,24.55
2023-05-01T15:55:07.448Z,22.08
2023-05-01T15:57:35.811Z,25.80
2023-05-01T16:00:04.512Z,22.77
2023-05-01T16:02:32.717Z,26.13
2023-05-01T16:05:00.589Z,24.27
2023-05-01T16:07:29.806Z,24.40
2023-05-01T16:10:00.251Z,24.55
2023-05-01T16:12:28.874Z,25.10
2023-05-01T16:14:56.519Z,29.60
2023-05-01T16:17:23.708Z,26.27
2023-05-01T16:19:52.540Z,25.45
2023-05-01T16:22:21.209Z,25.60
2023-05-01T16:24:48.472Z,27.67
2023-05-01T16:27:18.527Z,29.40
2023-05-01T16:29:45.874Z,29.05
2023-05-01T16:32:14.484Z,28.52
2023-05-01T16:34:43.447Z,26.83
2023-05-01T16:37:15.102Z,26.90
2023-05-01T16:39:42.400Z,28.98
2023-05-01T16:42:13.196Z,29.73
2023-05-01T16:44:40.598Z,32.25
2023-05-01T16:47:12.642Z,32.42
2023-05-01T16:49:44.412Z,29.27
2023-05-01T16:52:14.322Z,28.13
2023-05-01T16:54:41.554Z,28.27
2023-05-01T16:57:08.748Z,32.47
2023-05-01T16:59:37.492Z,34.90
2023-05-01T17:02:05.901Z,30.15
2023-05-01T17:04:33.512Z,27.83
2023-05-01T17:07:00.881Z,30.80
2023-05-01T17:09:28.095Z,29.20
2023-05-01T17:14:24.524Z,34.53
2023-05-01T17:16:53.226Z,36.80
2023-05-01T17:19:20.713Z,30.75
2023-05-01T17:21:47.854Z,33.80
2023-05-01T17:24:15.132Z,32.28
2023-05-01T17:26:42.302Z,40.08
2023-05-01T17:29:09.491Z,38.75
2023-05-01T17:31:36.711Z,34.70
2023-05-01T17:34:03.922Z,30.92
2023-05-01T17:36:32.122Z,34.60
2023-05-01T17:39:01.301Z,34.13
2023-05-01T17:41:28.680Z,39.58
2023-05-01T17:43:55.875Z,34.33
2023-05-01T17:46:23.096Z,37.67
2023-05-01T17:48:50.244Z,39.28
2023-05-01T17:51:18.081Z,37.53
2023-05-01T17:53:45.985Z,41.38
2023-05-01T17:56:13.131Z,37.45
2023-05-01T17:58:40.959Z,40.28
2023-05-01T18:01:08.525Z,39.70
2023-05-01T18:03:35.824Z,43.15
2023-05-01T18:06:04.257Z,40.97
2023-05-01T18:08:31.612Z,40.03
2023-05-01T18:10:58.803Z,38.35
2023-05-01T18:13:28.460Z,37.85
2023-05-01T18:15:56.409Z,38.08
2023-05-01T18:18:24.006Z,46.83
2023-05-01T18:20:51.726Z,41.17
2023-05-01T18:23:19.080Z,37.83
2023-05-01T18:25:46.346Z,39.50
2023-05-01T18:28:16.242Z,42.25
2023-05-01T18:30:43.675Z,39.03
2023-05-01T18:33:11.439Z,39.65
2023-05-01T18:35:42.352Z,35.65
2023-05-01T18:38:12.800Z,33.85
2023-05-01T18:40:40.014Z,33.90
2023-05-01T18:43:07.211Z,40.70
2023-05-01T18:45:34.354Z,37.97
2023-05-01T18:48:01.578Z,38.17
2023-05-01T18:50:28.785Z,34.58
2023-05-01T18:52:55.908Z,36.50
2023-05-01T18:55:23.130Z,38.13
2023-05-01T18:57:50.384Z,38.80
2023-05-01T19:00:18.048Z,42.85
2023-05-01T19:02:51.201Z,36.35
2023-05-01T19:05:18.790Z,31.10
2023-05-01T19:07:46.446Z,33.88
2023-05-01T19:10:14.321Z,31.95
2023-05-01T19:12:42.017Z,34.25
2023-05-01T19:15:10.264Z,30.33
2023-05-01T19:17:37.710Z,34.47
2023-05-01T19:20:06.189Z,34.55
2023-05-01T19:25:00.472Z,30.70
2023-05-01T19:27:27.682Z,32.35
2023-05-01T19:29:54.960Z,32.90
2023-05-01T19:32:23.225Z,38.92
2023-05-01T19:34:50.682Z,35.78
2023-05-01T19:37:17.897Z,39.03
2023-05-01T19:39:45.087Z,38.47
2023-05-01T19:42:12.291Z,38.00
2023-05-01T19:44:40.124Z,53.03
2023-05-01T19:47:07.255Z,55.03
2023-05-01T19:49:34.750Z,49.63
2023-05-01T19:52:01.958Z,47.58
2023-05-01T19:54:29.172Z,49.13
2023-05-01T19:56:57.064Z,47.22
2023-05-01T19:59:24.411Z,41.58
2023-05-01T20:01:51.731Z,45.70
2023-05-01T20:04:19.247Z,45.28
2023-05-01T20:06:46.910Z,43.47
2023-05-01T20:09:14.169Z,52.30
2023-05-01T20:11:41.394Z,50.45
2023-05-01T20:14:08.518Z,43.08
2023-05-01T20:16:36.048Z,41.55
2023-05-01T20:19:03.286Z,42.08
2023-05-01T20:21:31.073Z,45.22
2023-05-01T20:23:58.478Z,39.53
2023-05-01T20:26:25.737Z,36.92
2023-05-01T20:28:53.569Z,39.55
2023-05-01T20:31:21.290Z,37.17
2023-05-01T20:33:48.526Z,41.72
2023-05-01T20:36:17.191Z,46.55
2023-05-01T20:38:45.478Z,50.25
2023-05-01T20:41:12.847Z,52.72
2023-05-01T20:43:40.121Z,52.22
2023-05-01T20:46:07.292Z,44.40
2023-05-01T20:48:34.619Z,55.50
2023-05-01T20:51:01.733Z,51.40
2023-05-01T20:53:28.869Z,62.50
2023-05-01T20:55:56.039Z,59.95
2023-05-01T20:58:23.165Z,63.65
2023-05-01T21:00:53.341Z,66.53
2023-05-01T21:03:20.687Z,70.35
2023-05-01T21:05:48.102Z,72.75
2023-05-01T21:08:15.666Z,74.60
2023-05-01T21:10:42.866Z,88.90
2023-05-01T21:13:10.129Z,70.18
2023-05-01T21:15:43.807Z,83.50
2023-05-01T21:18:14.583Z,83.30
2023-05-01T21:20:45.398Z,96.10
2023-05-01T21:23:17.759Z,96.40
2023-05-01T21:25:44.999Z,117.80
2023-05-01T21:28:13.934Z,118.57
2023-05-01T21:30:41.419Z,126.13
2023-05-01T21:33:14.370Z,128.77
2023-05-01T21:35:44.790Z,131.20
2023-05-01T21:38:12.552Z,128.70
2023-05-01T21:40:46.080Z,123.35
2023-05-01T21:43:13.394Z,144.02
2023-05-01T21:45:44.571Z,118.75
2023-05-01T21:48:16.000Z,134.50
2023-05-01T21:50:43.260Z,142.80
2023-05-01T21:53:10.508Z,152.65
2023-05-01T21:55:38.733Z,135.20
2023-05-01T22:00:33.654Z,144.52
2023-05-01T22:03:05.876Z,142.52
2023-05-01T22:05:34.427Z,146.30
2023-05-01T22:08:01.679Z,139.23
2023-05-01T22:10:29.637Z,140.90
2023-05-01T22:12:56.824Z,170.70
2023-05-01T22:15:24.031Z,162.43
2023-05-01T22:17:51.356Z,169.43
2023-05-01T22:20:18.851Z,173.15
2023-05-01T22:22:45.977Z,182.07
2023-05-01T22:25:13.195Z,188.68
2023-05-01T22:27:40.726Z,194.65
2023-05-01T22:30:08.589Z,190.10
2023-05-01T22:32:35.993Z,224.60
2023-05-01T22:35:03.898Z,249.25
2023-05-01T22:37:31.292Z,252.90
2023-05-01T22:39:58.715Z,218.32
2023-05-01T22:42:26.126Z,248.50
2023-05-01T22:44:53.367Z,249.50
2023-05-01T22:47:20.628Z,229.93
2023-05-01T22:49:47.917Z,242.95
2023-05-01T22:52:15.373Z,241.02
2023-05-01T22:54:42.526Z,246.63
2023-05-01T22:57:10.199Z,258.13
2023-05-01T22:59:39.506Z,269.23
2023-05-01T23:02:06.866Z,269.83
2023-05-01T23:04:34.079Z,272.38
2023-05-01T23:07:01.211Z,278.65
2023-05-01T23:09:32.075Z,281.85
2023-05-01T23:11:59.313Z,274.00
2023-05-01T23:14:26.536Z,266.38
2023-05-01T23:16:56.283Z,274.80
2023-05-01T23:19:25.103Z,273.67
2023-05-01T23:22:12.449Z,258.75
2023-05-01T23:24:49.233Z,265.80
2023-05-01T23:27:19.116Z,262.77
2023-05-01T23:29:58.705Z,265.42
2023-05-01T23:32:30.004Z,246.10
2023-05-01T23:35:23.659Z,265.08
2023-05-01T23:37:52.744Z,231.57
2023-05-01T23:40:20.162Z,242.85
2023-05-01T23:42:48.012Z,239.30
2023-05-01T23:45:16.970Z,227.20
2023-05-01T23:47:44.175Z,211.95
2023-05-01T23:50:11.617Z,188.10
2023-05-01T23:52:38.830Z,174.50
2023-05-01T23:55:06.255Z,166.68
2023-05-01T23:57:33.367Z,152.27
